Time;durP1;ratioP1;P1;durP2;ratioP2;P2;SDS_P1;SDS_P2;PMS_P1;PMS_P2;Temp;Humidity;BMP_temperature;BMP_pressure;BME280_temperature;BME280_humidity;BME280_pressure;Samples;Min_cycle;Max_cycle;Signal;HPM_P1;HPM_P2
2023/08/24 00:02:06;;;;;;;6.68;4.35;;;22.20;95.40;;;;;;4955475;28;20154;-83
2023/08/24 00:04:32;;;;;;;7.32;4.65;;;22.10;95.40;;;;;;4973372;28;20034;-83
2023/08/24 00:06:58;;;;;;;6.05;4.68;;;22.10;95.50;;;;;;4970026;28;20027;-82
2023/08/24 00:09:24;;;;;;;8.85;4.25;;;22.10;95.50;;;;;;4968785;28;20378;-82
2023/08/24 00:11:50;;;;;;;6.13;4.78;;;22.10;95.60;;;;;;4969707;28;20306;-83
2023/08/24 00:14:15;;;;;;;6.38;4.10;;;22.00;95.60;;;;;;4966412;28;20037;-83
2023/08/24 00:16:42;;;;;;;7.47;4.38;;;22.00;95.70;;;;;;4966598;28;20440;-82
2023/08/24 00:19:08;;;;;;;7.72;4.03;;;22.00;95.60;;;;;;4967849;28;20031;-82
2023/08/24 00:21:33;;;;;;;5.13;3.70;;;21.90;95.60;;;;;;4971205;28;20136;-82
2023/08/24 00:23:59;;;;;;;6.75;4.40;;;21.90;95.70;;;;;;4971384;28;20038;-82
2023/08/24 00:26:25;;;;;;;8.55;4.47;;;21.90;95.80;;;;;;4953397;28;20067;-84
2023/08/24 00:28:51;;;;;;;5.65;4.05;;;21.90;96.20;;;;;;4969178;28;20023;-83
2023/08/24 00:31:17;;;;;;;11.32;3.97;;;21.90;95.90;;;;;;4969579;28;20034;-83
2023/08/24 00:33:43;;;;;;;6.70;4.55;;;21.80;95.90;;;;;;4966041;28;20043;-83
2023/08/24 00:36:09;;;;;;;5.55;4.00;;;21.90;95.90;;;;;;4968160;28;20077;-83
2023/08/24 00:38:35;;;;;;;4.80;4.03;;;21.80;96.00;;;;;;4970592;28;20027;-83
2023/08/24 00:41:00;;;;;;;8.95;4.53;;;21.80;96.00;;;;;;4966164;28;20030;-82
2023/08/24 00:43:27;;;;;;;6.53;4.30;;;21.80;95.90;;;;;;4968705;28;20031;-81
2023/08/24 00:45:56;;;;;;;6.28;4.63;;;21.80;96.00;;;;;;4967207;28;20027;-83
2023/08/24 00:48:26;;;;;;;7.45;4.35;;;21.80;96.00;;;;;;4953926;28;20473;-83
2023/08/24 00:50:56;;;;;;;4.57;4.18;;;21.80;96.10;;;;;;4953139;28;20393;-83
2023/08/24 00:53:25;;;;;;;7.25;4.55;;;21.70;96.10;;;;;;4969338;28;20031;-83
2023/08/24 00:55:50;;;;;;;9.65;4.60;;;21.60;96.10;;;;;;4969832;28;20030;-82
2023/08/24 00:58:17;;;;;;;8.50;4.53;;;21.60;96.20;;;;;;4951784;28;20037;-83
2023/08/24 01:00:43;;;;;;;8.27;4.88;;;21.70;96.30;;;;;;4965567;28;20412;-82
2023/08/24 01:03:09;;;;;;;7.65;4.30;;;21.50;96.30;;;;;;4965618;28;20054;-83
2023/08/24 01:05:34;;;;;;;8.10;4.20;;;21.50;96.40;;;;;;4970320;28;20035;-81
2023/08/24 01:08:00;;;;;;;6.15;4.30;;;21.50;96.40;;;;;;4968657;28;20047;-83
2023/08/24 01:10:36;;;;;;;7.65;4.55;;;21.50;96.50;;;;;;4966944;28;20034;-84
2023/08/24 01:13:10;;;;;;;5.35;4.05;;;21.50;96.50;;;;;;4953857;28;20035;-84
2023/08/24 01:15:55;;;;;;;7.40;3.92;;;21.50;96.60;;;;;;4966772;28;20117;-83
2023/08/24 01:18:23;;;;;;;5.50;3.70;;;21.40;96.60;;;;;;4951175;28;20066;-83
2023/08/24 01:20:49;;;;;;;8.07;4.90;;;21.40;96.70;;;;;;4955806;28;20027;-83
2023/08/24 01:23:41;;;;;;;6.55;4.28;;;21.40;96.80;;;;;;4969769;28;20122;-82
2023/08/24 01:26:11;;;;;;;7.40;4.18;;;21.40;96.90;;;;;;4967799;28;20027;-83
2023/08/24 01:28:37;;;;;;;8.18;4.55;;;21.40;97.00;;;;;;4966079;28;20025;-83
2023/08/24 01:31:05;;;;;;;5.70;4.38;;;21.30;97.00;;;;;;4968606;28;20031;-83
2023/08/24 01:33:31;;;;;;;8.68;4.40;;;21.30;97.00;;;;;;4969396;28;20033;-83
2023/08/24 01:35:56;;;;;;;10.32;4.55;;;21.30;97.00;;;;;;4950882;28;20042;-82
2023/08/24 01:38:22;;;;;;;8.38;4.20;;;21.30;97.00;;;;;;4965387;28;20031;-82
2023/08/24 01:41:06;;;;;;;8.32;4.65;;;21.20;97.30;;;;;;4971481;28;20037;-82
2023/08/24 01:43:35;;;;;;;4.35;3.95;;;21.30;97.10;;;;;;4951305;28;20050;-82
2023/08/24 01:46:04;;;;;;;7.88;5.05;;;21.30;97.00;;;;;;4966275;28;20046;-82
2023/08/24 01:48:31;;;;;;;5.07;4.38;;;21.20;97.10;;;;;;4965219;28;20057;-82
2023/08/24 01:51:01;;;;;;;8.48;4.47;;;21.20;97.10;;;;;;4967809;28;20469;-83
2023/08/24 01:53:30;;;;;;;6.65;4.63;;;21.20;97.10;;;;;;4967040;28;20046;-83
2023/08/24 01:55:56;;;;;;;15.30;4.90;;;21.20;97.10;;;;;;4965802;28;20790;-83
2023/08/24 01:58:21;;;;;;;8.32;5.07;;;21.10;97.30;;;;;;4969190;28;20074;-82
2023/08/24 02:00:47;;;;;;;12.60;5.55;;;21.20;97.70;;;;;;4965739;28;20109;-82
2023/08/24 02:03:13;;;;;;;9.93;5.75;;;21.10;98.00;;;;;;4949794;28;20588;-82
2023/08/24 02:05:38;;;;;;;9.82;6.10;;;21.10;98.30;;;;;;4948133;28;20023;-83
2023/08/24 02:08:05;;;;;;;9.95;6.85;;;21.10;98.50;;;;;;4965989;28;20050;-83
2023/08/24 02:10:31;;;;;;;9.15;6.97;;;21.10;98.70;;;;;;4966826;28;20113;-83
2023/08/24 02:12:57;;;;;;;9.52;6.78;;;21.00;98.90;;;;;;4965194;28;20034;-82
2023/08/24 02:15:22;;;;;;;9.68;7.43;;;21.00;99.20;;;;;;4966179;28;20042;-82
2023/08/24 02:17:48;;;;;;;12.20;7.60;;;21.00;99.30;;;;;;4964549;28;20037;-82
2023/08/24 02:20:14;;;;;;;9.55;6.80;;;21.00;99.50;;;;;;4966227;28;20130;-82
2023/08/24 02:22:40;;;;;;;10.93;7.20;;;20.90;99.70;;;;;;4952477;28;20105;-82
2023/08/24 02:25:06;;;;;;;10.63;6.95;;;20.90;99.90;;;;;;4967582;28;20031;-82
2023/08/24 02:27:32;;;;;;;8.63;6.90;;;20.80;99.90;;;;;;4953253;28;20085;-82
2023/08/24 02:29:58;;;;;;;8.40;6.88;;;20.80;99.90;;;;;;4959520;28;20030;-82
2023/08/24 02:32:24;;;;;;;10.77;6.72;;;20.70;99.90;;;;;;4968131;28;20397;-81
2023/08/24 02:34:49;;;;;;;8.57;6.47;;;20.70;99.90;;;;;;4968299;28;20035;-82
2023/08/24 02:37:15;;;;;;;7.82;6.10;;;20.70;99.90;;;;;;4965743;28;20027;-82
2023/08/24 02:39:41;;;;;;;11.30;6.75;;;20.70;99.90;;;;;;4970049;28;20023;-81
2023/08/24 02:42:06;;;;;;;9.10;6.43;;;20.70;99.90;;;;;;4966300;28;20118;-81
2023/08/24 02:44:32;;;;;;;7.40;6.70;;;20.60;99.90;;;;;;4966373;28;20028;-82
2023/08/24 02:46:58;;;;;;;8.27;6.05;;;20.60;99.90;;;;;;4967238;28;20034;-82
2023/08/24 02:49:23;;;;;;;9.25;6.32;;;20.60;99.90;;;;;;4968350;28;20058;-82
2023/08/24 02:51:49;;;;;;;7.97;6.63;;;20.60;99.90;;;;;;4971509;28;20023;-83
2023/08/24 02:54:15;;;;;;;12.45;7.25;;;20.60;99.90;;;;;;4975006;28;20077;-82
2023/08/24 02:56:40;;;;;;;8.95;8.05;;;20.60;99.90;;;;;;4967119;28;20130;-83
2023/08/24 02:59:06;;;;;;;8.00;6.85;;;20.50;99.90;;;;;;4970330;28;20031;-83
2023/08/24 03:01:32;;;;;;;11.40;7.55;;;20.50;99.90;;;;;;4970125;28;20114;-82
2023/08/24 03:03:57;;;;;;;11.20;7.85;;;20.50;99.90;;;;;;4968484;28;20034;-82
2023/08/24 03:06:26;;;;;;;11.02;7.78;;;20.50;99.90;;;;;;4961179;28;20109;-82
2023/08/24 03:08:51;;;;;;;9.85;8.07;;;20.50;99.90;;;;;;4971848;28;20027;-81
2023/08/24 03:11:17;;;;;;;11.38;7.75;;;20.50;99.90;;;;;;4970631;28;20030;-81
2023/08/24 03:13:46;;;;;;;11.93;7.35;;;20.50;99.90;;;;;;4972795;28;20058;-82
2023/08/24 03:16:11;;;;;;;9.38;6.78;;;20.50;99.90;;;;;;4972687;28;20035;-82
2023/08/24 03:18:37;;;;;;;10.55;7.97;;;20.50;99.90;;;;;;4972963;28;20397;-82
2023/08/24 03:21:03;;;;;;;13.82;8.30;;;20.50;99.90;;;;;;4971834;28;20367;-81
2023/08/24 03:23:28;;;;;;;12.23;7.63;;;20.50;99.90;;;;;;4968981;28;20024;-82
2023/08/24 03:25:55;;;;;;;13.18;6.70;;;20.50;99.90;;;;;;4971861;28;20061;-82
2023/08/24 03:28:21;;;;;;;10.38;7.55;;;20.50;99.90;;;;;;4971679;28;20054;-82
2023/08/24 03:30:48;;;;;;;8.77;7.43;;;20.50;99.90;;;;;;4970785;28;20051;-82
2023/08/24 03:33:14;;;;;;;9.30;7.68;;;20.50;99.90;;;;;;4971075;28;20027;-82
2023/08/24 03:35:40;;;;;;;10.75;6.82;;;20.50;99.90;;;;;;4969519;28;20042;-82
2023/08/24 03:38:06;;;;;;;15.63;7.40;;;20.50;99.90;;;;;;4973013;28;20117;-83
2023/08/24 03:40:32;;;;;;;9.77;7.32;;;20.50;99.90;;;;;;4969766;28;20065;-82
2023/08/24 03:42:57;;;;;;;9.63;7.40;;;20.40;99.90;;;;;;4969898;28;20382;-83
2023/08/24 03:45:23;;;;;;;8.77;7.90;;;20.40;99.90;;;;;;4974964;28;20027;-82
2023/08/24 03:47:49;;;;;;;9.48;7.03;;;20.40;99.90;;;;;;4968452;28;20019;-82
2023/08/24 03:50:16;;;;;;;10.85;6.43;;;20.40;99.90;;;;;;4970680;28;20153;-82
2023/08/24 03:52:42;;;;;;;9.45;6.88;;;20.40;99.90;;;;;;4973695;28;20023;-82
2023/08/24 03:55:08;;;;;;;9.10;7.13;;;20.30;99.90;;;;;;4974476;28;20037;-82
2023/08/24 03:57:34;;;;;;;12.43;7.57;;;20.30;99.90;;;;;;4968914;28;20106;-82
2023/08/24 04:00:00;;;;;;;8.75;6.78;;;20.30;99.90;;;;;;4970301;28;20050;-82
2023/08/24 04:02:26;;;;;;;12.27;7.20;;;20.20;99.90;;;;;;4970528;28;20031;-82
2023/08/24 04:04:52;;;;;;;9.32;6.07;;;20.20;99.90;;;;;;4958837;28;20041;-82
2023/08/24 04:07:18;;;;;;;9.68;7.10;;;20.20;99.90;;;;;;4964872;28;20058;-83
2023/08/24 04:09:45;;;;;;;8.95;6.63;;;20.20;99.90;;;;;;4973322;28;20023;-81
2023/08/24 04:12:11;;;;;;;11.02;6.78;;;20.20;99.90;;;;;;4954701;28;20050;-82
2023/08/24 04:14:36;;;;;;;10.20;7.18;;;20.20;99.90;;;;;;4973566;28;20470;-82
2023/08/24 04:17:02;;;;;;;10.13;6.80;;;20.20;99.90;;;;;;4973854;28;20038;-82
2023/08/24 04:19:28;;;;;;;10.25;6.55;;;20.20;99.90;;;;;;4966530;28;20062;-82
2023/08/24 04:21:53;;;;;;;8.02;6.80;;;20.20;99.90;;;;;;4969786;28;20046;-82
2023/08/24 04:24:19;;;;;;;9.98;7.00;;;20.20;99.90;;;;;;4969389;28;20027;-82
2023/08/24 04:26:44;;;;;;;9.88;7.28;;;20.20;99.90;;;;;;4970871;28;20493;-82
2023/08/24 04:29:10;;;;;;;9.68;6.43;;;20.20;99.90;;;;;;4971243;28;20058;-82
2023/08/24 04:31:37;;;;;;;8.38;6.78;;;20.30;99.90;;;;;;4970989;28;20018;-82
2023/08/24 04:34:03;;;;;;;9.52;6.72;;;20.20;99.90;;;;;;4956444;28;20019;-83
2023/08/24 04:36:29;;;;;;;10.73;6.60;;;20.20;99.90;;;;;;4970561;28;20110;-82
2023/08/24 04:38:55;;;;;;;9.98;7.20;;;20.30;99.90;;;;;;4970212;28;20078;-83
2023/08/24 04:41:20;;;;;;;9.07;6.63;;;20.30;99.90;;;;;;4950071;28;20054;-83
2023/08/24 04:43:46;;;;;;;9.40;5.82;;;20.30;99.90;;;;;;4972600;28;20015;-83
2023/08/24 04:46:12;;;;;;;13.02;6.95;;;20.20;99.90;;;;;;4969033;28;20027;-83
2023/08/24 04:48:37;;;;;;;8.52;6.53;;;20.30;99.90;;;;;;4971244;28;20038;-82
2023/08/24 04:51:03;;;;;;;12.18;7.18;;;20.30;99.90;;;;;;4969605;28;20031;-82
2023/08/24 04:53:29;;;;;;;12.52;7.32;;;20.30;99.90;;;;;;4971184;28;20014;-83
2023/08/24 04:55:54;;;;;;;9.68;7.53;;;20.30;99.90;;;;;;4974220;28;20038;-82
2023/08/24 04:58:23;;;;;;;9.00;6.80;;;20.30;99.90;;;;;;4965573;28;20077;-82
2023/08/24 05:00:49;;;;;;;9.77;7.95;;;20.30;99.90;;;;;;4958338;28;20508;-82
2023/08/24 05:03:14;;;;;;;8.35;6.40;;;20.30;99.90;;;;;;4967746;28;20023;-82
2023/08/24 05:05:40;;;;;;;8.80;6.80;;;20.40;99.90;;;;;;4953927;28;20026;-82
2023/08/24 05:08:09;;;;;;;12.38;7.60;;;20.40;99.90;;;;;;4969270;28;20492;-82
2023/08/24 05:10:35;;;;;;;11.95;7.85;;;20.40;99.90;;;;;;4967967;28;20090;-82
2023/08/24 05:13:01;;;;;;;11.60;7.32;;;20.40;99.90;;;;;;4970235;28;20044;-82
2023/08/24 05:15:27;;;;;;;13.98;8.30;;;20.40;99.90;;;;;;4954059;28;20038;-83
2023/08/24 05:17:54;;;;;;;17.42;9.05;;;20.40;99.90;;;;;;4972745;28;20039;-83
2023/08/24 05:20:21;;;;;;;11.77;8.60;;;20.40;99.90;;;;;;4969969;28;20387;-83
2023/08/24 05:22:47;;;;;;;11.80;7.95;;;20.40;99.90;;;;;;4949094;28;20031;-82
2023/08/24 05:25:13;;;;;;;15.93;7.72;;;20.40;99.90;;;;;;4985541;23;20039;-74
2023/08/24 05:27:39;;;;;;;10.27;7.03;;;20.50;99.90;;;;;;4970115;28;20083;-73
2023/08/24 05:30:06;;;;;;;9.57;7.43;;;20.50;99.90;;;;;;4964761;28;20115;-73
2023/08/24 05:32:40;;;;;;;11.75;8.13;;;20.40;99.90;;;;;;4971851;28;20054;-73
2023/08/24 05:35:09;;;;;;;13.43;8.15;;;20.40;99.90;;;;;;4973795;28;20405;-73
2023/08/24 05:37:38;;;;;;;12.07;7.57;;;20.50;99.90;;;;;;4970618;28;20030;-73
2023/08/24 05:40:10;;;;;;;15.73;8.57;;;20.50;99.90;;;;;;4973728;28;20031;-73
2023/08/24 05:42:39;;;;;;;12.68;8.48;;;20.50;99.90;;;;;;4970642;28;20485;-72
2023/08/24 05:45:05;;;;;;;11.43;8.27;;;20.60;99.90;;;;;;4986049;28;20468;-72
2023/08/24 05:47:30;;;;;;;10.65;7.20;;;20.60;99.90;;;;;;4968406;28;20051;-73
2023/08/24 05:49:56;;;;;;;9.75;7.63;;;20.60;99.90;;;;;;4968948;28;20084;-72
2023/08/24 05:52:21;;;;;;;15.70;8.05;;;20.70;99.90;;;;;;5011538;23;20046;-80
2023/08/24 05:54:47;;;;;;;11.60;8.07;;;20.70;99.90;;;;;;5013360;28;20732;-79
2023/08/24 05:57:16;;;;;;;10.80;8.57;;;20.70;99.90;;;;;;5018273;28;20022;-79
2023/08/24 05:59:42;;;;;;;10.50;7.45;;;20.70;99.90;;;;;;5016370;28;20036;-79
2023/08/24 06:02:08;;;;;;;10.05;6.97;;;20.70;99.90;;;;;;5027430;28;20022;-79
2023/08/24 06:04:33;;;;;;;11.82;7.97;;;20.80;99.90;;;;;;4995025;28;20072;-78
2023/08/24 06:06:59;;;;;;;11.10;8.02;;;20.80;99.90;;;;;;5015150;28;20053;-77
2023/08/24 06:09:27;;;;;;;11.45;7.50;;;20.80;99.90;;;;;;5017656;28;20108;-78
2023/08/24 06:11:53;;;;;;;11.43;7.65;;;20.90;99.90;;;;;;5010424;28;20041;-78
2023/08/24 06:14:22;;;;;;;13.30;8.15;;;20.90;99.90;;;;;;5008572;28;20370;-72
2023/08/24 06:16:48;;;;;;;12.38;7.82;;;21.00;99.90;;;;;;5010731;28;20025;-72
2023/08/24 06:19:14;;;;;;;11.85;7.85;;;20.90;99.90;;;;;;5010412;28;20029;-72
2023/08/24 06:21:39;;;;;;;9.07;7.70;;;20.90;99.90;;;;;;5012126;28;20551;-72
2023/08/24 06:24:05;;;;;;;16.17;8.50;;;21.00;99.90;;;;;;5003927;28;20030;-72
2023/08/24 06:26:31;;;;;;;16.65;7.95;;;21.00;99.90;;;;;;5007336;28;20022;-72
2023/08/24 06:28:56;;;;;;;14.65;8.25;;;21.10;99.90;;;;;;5005268;28;20033;-73
2023/08/24 06:31:22;;;;;;;14.25;8.70;;;21.10;99.90;;;;;;4987618;28;20069;-71
2023/08/24 06:33:49;;;;;;;14.45;7.45;;;21.20;99.90;;;;;;5008836;28;20120;-73
2023/08/24 06:36:14;;;;;;;12.73;8.40;;;21.20;99.90;;;;;;5008353;28;20416;-73
2023/08/24 06:38:40;;;;;;;15.48;8.00;;;21.10;99.90;;;;;;4992670;28;20026;-74
2023/08/24 06:41:12;;;;;;;8.70;7.68;;;21.20;99.90;;;;;;5013145;28;20536;-73
2023/08/24 06:43:38;;;;;;;9.98;7.95;;;21.20;99.90;;;;;;5009521;28;20023;-74
2023/08/24 06:46:07;;;;;;;11.27;7.90;;;21.20;99.90;;;;;;5000745;28;20026;-73
2023/08/24 06:48:34;;;;;;;14.05;8.85;;;21.30;99.90;;;;;;4993957;28;20018;-75
2023/08/24 06:51:03;;;;;;;10.40;8.27;;;21.30;99.90;;;;;;5011651;28;20022;-74
2023/08/24 06:53:28;;;;;;;8.95;6.97;;;21.30;99.90;;;;;;5014566;28;20086;-75
2023/08/24 06:55:58;;;;;;;14.55;7.72;;;21.20;99.90;;;;;;5017530;28;20057;-74
2023/08/24 06:58:26;;;;;;;10.70;7.75;;;21.20;99.90;;;;;;5019347;28;20018;-73
2023/08/24 07:00:52;;;;;;;12.98;8.20;;;21.20;99.90;;;;;;5011403;28;20040;-73
2023/08/24 07:03:18;;;;;;;14.52;7.63;;;21.20;99.90;;;;;;5012821;28;20053;-73
2023/08/24 07:05:47;;;;;;;15.60;8.35;;;21.20;99.90;;;;;;4990052;28;20030;-72
2023/08/24 07:08:13;;;;;;;15.45;7.68;;;21.30;99.90;;;;;;5010895;28;20486;-73
2023/08/24 07:10:43;;;;;;;11.18;8.43;;;21.20;99.90;;;;;;5007706;28;20018;-74
2023/08/24 07:13:09;;;;;;;12.98;8.13;;;21.20;99.90;;;;;;4997075;28;20026;-74
2023/08/24 07:15:35;;;;;;;12.90;8.65;;;21.30;99.90;;;;;;4997429;28;20044;-72
2023/08/24 07:18:09;;;;;;;12.30;8.50;;;21.30;99.90;;;;;;5003409;28;20065;-74
2023/08/24 07:20:36;;;;;;;9.23;7.78;;;21.30;99.90;;;;;;5010643;28;20026;-73
2023/08/24 07:23:14;;;;;;;12.07;7.57;;;21.30;99.90;;;;;;5012239;28;20032;-76
2023/08/24 07:25:45;;;;;;;16.17;6.60;;;21.40;99.90;;;;;;5011220;28;20041;-72
2023/08/24 07:28:11;;;;;;;10.65;7.70;;;21.40;99.90;;;;;;4992579;28;20022;-73
2023/08/24 07:30:36;;;;;;;10.95;7.20;;;21.40;99.90;;;;;;5009778;28;20032;-74
2023/08/24 07:33:03;;;;;;;13.88;6.53;;;21.40;99.90;;;;;;5012141;28;20025;-74
2023/08/24 07:35:31;;;;;;;8.43;6.50;;;21.50;99.90;;;;;;5006181;28;20026;-72
2023/08/24 07:37:57;;;;;;;9.43;7.40;;;21.50;99.90;;;;;;5014564;28;20029;-79
2023/08/24 07:40:23;;;;;;;9.48;6.43;;;21.70;99.90;;;;;;5014912;28;20037;-79
2023/08/24 07:42:56;;;;;;;8.98;6.80;;;21.80;99.90;;;;;;5015771;28;20021;-81
2023/08/24 07:45:23;;;;;;;13.43;6.85;;;21.90;99.90;;;;;;5010733;28;20086;-77
2023/08/24 07:47:49;;;;;;;10.80;6.30;;;22.00;99.90;;;;;;5012551;28;20076;-78
2023/08/24 07:50:14;;;;;;;8.57;6.00;;;22.00;99.90;;;;;;5014941;28;20022;-78
2023/08/24 07:52:40;;;;;;;10.25;6.75;;;22.00;99.90;;;;;;4994412;28;20373;-78
2023/08/24 07:55:07;;;;;;;9.23;6.65;;;22.10;99.90;;;;;;5009890;28;20049;-77
2023/08/24 07:57:37;;;;;;;9.02;6.05;;;22.10;99.90;;;;;;5009845;28;20033;-77
2023/08/24 08:00:04;;;;;;;10.88;6.30;;;22.00;99.90;;;;;;5013369;28;20451;-79
2023/08/24 08:02:32;;;;;;;9.35;6.10;;;22.10;99.90;;;;;;4998656;28;20033;-79
2023/08/24 08:04:59;;;;;;;10.77;7.47;;;22.20;99.90;;;;;;5018936;28;20113;-84
2023/08/24 08:07:28;;;;;;;11.57;7.07;;;22.30;99.90;;;;;;5000904;28;20030;-84
2023/08/24 08:09:54;;;;;;;9.05;6.40;;;22.40;99.90;;;;;;5001122;28;20851;-84
2023/08/24 08:12:19;;;;;;;16.58;7.25;;;22.50;99.90;;;;;;5019861;28;20045;-85
2023/08/24 08:14:45;;;;;;;10.55;6.07;;;22.60;99.90;;;;;;5001675;28;20030;-85
2023/08/24 08:17:11;;;;;;;6.00;5.18;;;22.70;99.90;;;;;;5002233;28;20037;-83
2023/08/24 08:19:37;;;;;;;7.97;5.20;;;22.70;99.60;;;;;;5014084;28;20053;-82
2023/08/24 08:22:05;;;;;;;9.10;5.95;;;22.80;99.20;;;;;;5003982;28;20539;-84
2023/08/24 08:24:31;;;;;;;8.90;6.20;;;22.90;99.20;;;;;;5000326;28;20025;-85
2023/08/24 08:26:57;;;;;;;9.77;5.68;;;23.10;99.20;;;;;;5001785;28;20084;-85
2023/08/24 08:29:23;;;;;;;7.80;5.68;;;23.10;98.90;;;;;;5001172;28;20417;-84
2023/08/24 08:31:48;;;;;;;7.75;6.45;;;23.20;98.90;;;;;;5020103;28;20073;-86
2023/08/24 08:34:14;;;;;;;9.40;6.38;;;23.30;98.80;;;;;;5006457;28;20045;-86
2023/08/24 08:36:40;;;;;;;8.50;6.30;;;23.40;98.60;;;;;;5005735;28;20022;-85
2023/08/24 08:39:05;;;;;;;11.68;6.45;;;23.40;98.60;;;;;;5023102;28;20053;-85
2023/08/24 08:41:40;;;;;;;8.98;6.07;;;23.50;98.40;;;;;;5007212;28;20519;-85
2023/08/24 08:44:06;;;;;;;11.00;6.32;;;23.60;98.40;;;;;;5001924;28;20068;-85
2023/08/24 08:46:35;;;;;;;14.52;6.68;;;23.60;98.30;;;;;;5003869;28;20489;-85
2023/08/24 08:49:02;;;;;;;10.52;5.93;;;23.70;98.40;;;;;;5019484;28;20030;-85
2023/08/24 08:51:29;;;;;;;11.55;6.47;;;23.80;98.20;;;;;;5003349;28;20056;-85
2023/08/24 08:53:54;;;;;;;11.00;5.35;;;23.90;98.00;;;;;;5002558;28;20018;-85
2023/08/24 08:56:21;;;;;;;8.98;5.47;;;24.00;97.70;;;;;;5004348;28;20500;-84
2023/08/24 08:58:48;;;;;;;8.52;5.88;;;24.10;97.60;;;;;;5019463;28;20029;-84
2023/08/24 09:01:14;;;;;;;11.80;5.35;;;24.20;97.60;;;;;;5016290;28;20053;-83
2023/08/24 09:03:40;;;;;;;8.00;5.72;;;24.30;97.20;;;;;;5001598;28;20048;-82
2023/08/24 09:06:09;;;;;;;10.18;6.15;;;24.30;97.20;;;;;;5010849;28;20025;-83
2023/08/24 09:08:38;;;;;;;11.02;5.07;;;24.40;97.10;;;;;;5022883;28;20022;-80
2023/08/24 09:11:07;;;;;;;8.75;5.20;;;24.50;97.00;;;;;;5013577;28;20053;-83
2023/08/24 09:13:39;;;;;;;9.73;5.20;;;24.60;96.90;;;;;;5000540;28;20029;-81
2023/08/24 09:16:15;;;;;;;13.95;5.93;;;24.70;96.60;;;;;;5014902;28;20085;-82
2023/08/24 09:18:47;;;;;;;8.50;5.20;;;24.80;96.50;;;;;;4996398;28;20049;-82
2023/08/24 09:21:16;;;;;;;8.95;5.30;;;24.90;96.60;;;;;;5017568;28;20026;-82
2023/08/24 09:23:51;;;;;;;14.35;4.68;;;25.00;96.60;;;;;;5001590;28;20108;-84
2023/08/24 09:26:26;;;;;;;8.38;5.60;;;25.10;96.50;;;;;;5017245;28;20037;-84
2023/08/24 09:28:52;;;;;;;7.85;5.13;;;25.30;96.20;;;;;;4994658;28;20133;-81
2023/08/24 09:31:35;;;;;;;6.13;4.40;;;25.30;95.90;;;;;;4997461;28;20096;-81
2023/08/24 09:34:03;;;;;;;5.88;4.70;;;25.30;96.30;;;;;;5016926;28;20025;-82
2023/08/24 09:36:33;;;;;;;9.02;4.72;;;25.50;96.20;;;;;;5017938;28;20036;-84
2023/08/24 09:39:05;;;;;;;7.10;4.65;;;25.50;96.30;;;;;;5014835;28;20030;-84
2023/08/24 09:41:38;;;;;;;9.27;5.35;;;25.60;96.50;;;;;;5006839;28;20040;-84
2023/08/24 09:44:04;;;;;;;8.57;5.35;;;25.60;96.40;;;;;;5001155;28;20041;-83
2023/08/24 09:46:30;;;;;;;8.45;4.93;;;25.70;96.60;;;;;;5017728;28;20054;-85
2023/08/24 09:49:00;;;;;;;6.28;4.90;;;25.80;96.80;;;;;;5018219;28;20411;-83
2023/08/24 09:51:33;;;;;;;7.13;5.05;;;25.90;96.70;;;;;;5001389;28;20044;-83
2023/08/24 09:54:06;;;;;;;7.88;5.00;;;26.00;96.20;;;;;;5015572;28;20037;-84
2023/08/24 09:56:37;;;;;;;7.13;5.53;;;26.10;96.10;;;;;;5012389;28;20026;-84
2023/08/24 09:59:18;;;;;;;11.07;4.95;;;26.20;96.10;;;;;;5014811;28;20384;-84
2023/08/24 10:01:49;;;;;;;9.95;5.07;;;26.30;96.00;;;;;;5017512;28;20029;-82
2023/08/24 10:04:22;;;;;;;9.05;5.18;;;26.40;95.80;;;;;;5015631;28;20037;-84
2023/08/24 10:07:14;;;;;;;7.32;6.05;;;26.50;95.80;;;;;;5017555;28;20096;-84
2023/08/24 10:10:07;;;;;;;9.07;5.15;;;26.60;95.90;;;;;;5015491;28;20029;-84
2023/08/24 10:12:46;;;;;;;10.27;5.70;;;26.60;95.90;;;;;;5019890;28;20084;-82
2023/08/24 10:15:17;;;;;;;5.65;4.90;;;26.70;95.90;;;;;;5018751;28;20037;-84
2023/08/24 10:17:50;;;;;;;11.07;5.90;;;26.90;95.70;;;;;;5017875;28;20022;-84
2023/08/24 10:20:19;;;;;;;7.63;5.40;;;26.90;95.60;;;;;;5018312;28;20068;-84
2023/08/24 10:22:46;;;;;;;7.53;5.35;;;27.00;95.60;;;;;;5002400;28;20045;-82
2023/08/24 10:25:18;;;;;;;8.25;5.57;;;27.00;95.70;;;;;;5002850;28;20033;-83
2023/08/24 10:27:50;;;;;;;9.52;5.50;;;27.10;95.70;;;;;;5019279;28;20605;-83
2023/08/24 10:30:20;;;;;;;13.27;5.80;;;27.20;95.60;;;;;;5018143;28;20656;-83
2023/08/24 10:32:48;;;;;;;9.95;5.45;;;27.30;95.60;;;;;;5015122;28;20018;-85
2023/08/24 10:35:16;;;;;;;7.13;5.55;;;27.40;95.60;;;;;;5003538;28;20054;-84
2023/08/24 10:37:52;;;;;;;7.13;5.38;;;27.50;95.40;;;;;;5020813;28;20109;-84
2023/08/24 10:40:34;;;;;;;7.28;5.30;;;27.70;95.30;;;;;;5019647;28;20030;-83
2023/08/24 10:43:06;;;;;;;8.43;5.32;;;27.80;95.20;;;;;;5002472;28;20043;-83
2023/08/24 10:45:55;;;;;;;7.43;5.45;;;27.80;95.00;;;;;;5001220;28;20384;-83
2023/08/24 10:48:26;;;;;;;9.73;5.30;;;27.80;94.90;;;;;;5016977;28;20057;-83
2023/08/24 10:51:13;;;;;;;6.25;4.80;;;27.90;94.90;;;;;;5017333;28;20033;-83
2023/08/24 10:53:48;;;;;;;10.48;5.45;;;28.00;94.90;;;;;;5011580;28;20026;-84
2023/08/24 10:56:16;;;;;;;10.25;6.25;;;28.00;94.80;;;;;;5017268;28;20018;-84
2023/08/24 10:58:45;;;;;;;9.05;5.50;;;28.10;94.90;;;;;;5015972;28;20031;-83
2023/08/24 11:01:17;;;;;;;9.15;5.03;;;28.10;94.70;;;;;;4998425;28;20045;-84
2023/08/24 11:03:55;;;;;;;9.35;5.10;;;28.20;94.70;;;;;;4998252;28;20038;-82
2023/08/24 11:06:22;;;;;;;8.18;6.20;;;28.20;94.60;;;;;;5015755;28;20112;-85
2023/08/24 11:09:14;;;;;;;8.45;5.25;;;28.30;94.50;;;;;;4996368;28;20026;-85
2023/08/24 11:11:41;;;;;;;9.95;5.55;;;28.30;94.50;;;;;;5015376;28;20022;-85
2023/08/24 11:14:21;;;;;;;8.40;5.18;;;28.40;94.40;;;;;;5001220;28;20041;-83
2023/08/24 11:16:48;;;;;;;6.45;5.18;;;28.50;94.30;;;;;;5017115;28;20019;-83
2023/08/24 11:19:17;;;;;;;11.27;5.68;;;28.60;94.10;;;;;;4998662;28;20031;-83
2023/08/24 11:21:46;;;;;;;8.98;5.53;;;28.60;94.40;;;;;;5015459;28;20504;-83
2023/08/24 11:24:17;;;;;;;10.35;5.57;;;28.60;94.10;;;;;;5015630;28;20048;-84
2023/08/24 11:26:44;;;;;;;6.22;5.30;;;28.70;94.00;;;;;;5018599;28;20034;-82
2023/08/24 11:29:11;;;;;;;7.05;5.00;;;28.70;93.80;;;;;;5001330;28;20068;-82
2023/08/24 11:31:42;;;;;;;10.65;4.85;;;28.80;93.60;;;;;;5014563;28;20488;-82
2023/08/24 11:34:08;;;;;;;9.45;5.75;;;29.00;93.50;;;;;;5015944;28;20033;-81
2023/08/24 11:36:47;;;;;;;10.05;5.88;;;29.10;93.50;;;;;;5015984;28;20014;-82
2023/08/24 11:39:19;;;;;;;10.05;5.35;;;29.20;93.30;;;;;;5018102;28;20026;-83
2023/08/24 11:41:56;;;;;;;10.15;5.40;;;29.20;93.30;;;;;;4998764;28;20053;-83
2023/08/24 11:44:21;;;;;;;10.30;5.50;;;29.30;92.90;;;;;;5020520;28;20093;-86
2023/08/24 11:46:47;;;;;;;8.05;5.95;;;29.40;92.70;;;;;;5020694;28;20057;-85
2023/08/24 11:49:13;;;;;;;9.30;4.97;;;29.50;92.60;;;;;;5018497;28;20022;-85
2023/08/24 11:51:38;;;;;;;7.28;5.22;;;29.50;92.60;;;;;;5019911;23;20053;-79
2023/08/24 11:54:04;;;;;;;13.10;6.55;;;29.70;92.40;;;;;;4971620;28;20038;-79
2023/08/24 11:56:30;;;;;;;9.90;5.47;;;29.60;92.10;;;;;;4991982;28;20018;-80
2023/08/24 11:58:55;;;;;;;8.45;5.70;;;29.70;92.10;;;;;;4991394;28;20101;-79
2023/08/24 12:01:21;;;;;;;9.23;5.32;;;29.70;92.10;;;;;;4985124;28;20081;-78
2023/08/24 12:03:50;;;;;;;9.50;5.50;;;29.80;91.80;;;;;;4973416;28;20097;-78
2023/08/24 12:06:17;;;;;;;11.10;5.57;;;29.90;91.50;;;;;;4973511;28;20046;-79
2023/08/24 12:08:46;;;;;;;13.77;5.63;;;30.10;90.80;;;;;;4958996;28;20060;-81
2023/08/24 12:11:18;;;;;;;14.85;5.68;;;30.20;91.00;;;;;;4971109;28;20023;-81
2023/08/24 12:13:52;;;;;;;10.25;5.35;;;30.40;90.80;;;;;;4972902;28;20091;-79
2023/08/24 12:16:19;;;;;;;9.18;5.20;;;30.50;90.30;;;;;;4957069;28;20098;-79
2023/08/24 12:19:19;;;;;;;16.73;5.20;;;30.70;89.70;;;;;;4957239;28;20117;-81
2023/08/24 12:21:49;;;;;;;11.80;5.40;;;30.90;86.30;;;;;;4972203;28;20035;-80
2023/08/24 12:24:15;;;;;;;11.02;5.35;;;31.00;86.70;;;;;;4971903;28;20037;-79
2023/08/24 12:26:41;;;;;;;11.35;5.97;;;31.10;86.00;;;;;;4975041;28;20109;-80
2023/08/24 12:29:08;;;;;;;9.73;5.22;;;31.10;85.70;;;;;;4957015;28;20422;-79
2023/08/24 12:31:34;;;;;;;11.93;5.18;;;31.10;86.20;;;;;;4967756;28;20023;-79
2023/08/24 12:34:04;;;;;;;9.02;5.20;;;31.00;86.30;;;;;;4957433;28;20385;-78
2023/08/24 12:36:35;;;;;;;9.75;5.25;;;31.20;85.80;;;;;;4973250;28;20117;-79
2023/08/24 12:39:03;;;;;;;13.68;5.45;;;31.20;85.60;;;;;;4977580;28;20054;-79
2023/08/24 12:41:29;;;;;;;15.68;5.30;;;31.10;85.10;;;;;;4977149;28;20599;-77
2023/08/24 12:43:54;;;;;;;12.57;5.65;;;31.20;85.00;;;;;;4972649;28;20027;-78
2023/08/24 12:46:20;;;;;;;10.27;5.32;;;31.20;85.00;;;;;;4970384;28;20493;-81
2023/08/24 12:48:46;;;;;;;13.13;5.35;;;31.20;85.40;;;;;;4969441;28;20053;-79